AirNav   Air Wisconsin Up To $57,000 Bonus
 
 836 users online  

90KS Sunset Strip Airpark
Topeka, Kansas, USA

GOING TO TOPEKA?


FAA INFORMATION EFFECTIVE 12 SEPTEMBER 2019

Location

FAA Identifier: 90KS
Lat/Long: 38-58-57.0000N 095-35-41.9200W
38-58.950000N 095-35.698667W
38.9825000,-95.5949778
(estimated)
Elevation: 1075 ft. / 328 m (estimated)
Variation: 04E (2000)
From city: 6 miles SE of TOPEKA, KS
Time zone: UTC -5 (UTC -6 during Standard Time)
Zip code: 66409

Airport Operations

Airport use: Private use. Permission required prior to landing
Activation date: 05/2001
Control tower: no
ARTCC: KANSAS CITY CENTER
FSS: WICHITA FLIGHT SERVICE STATION
Attendance: UNATNDD
Wind indicator: yes
Segmented circle: no

Airport Communications

WX ASOS at FOE (4 nm SW): PHONE 785-862-8258
WX ASOS at TOP (5 nm N): 121.275 (785-234-1591)
WX ASOS at LWC (18 nm E): 121.225 (785-749-1309)

Nearby radio navigation aids

VOR radial/distance  VOR name  Freq  Var
TOPr188/9.5TOPEKA VORTAC117.8005E

 
NDB name  Hdg/Dist  Freq  Var  ID
BILOY148/9.352105ETO - ---

Airport Services

Runway Information

Runway 18/36

Dimensions: 2600 x 100 ft. / 792 x 30 m
Surface: turf
RUNWAY 18  RUNWAY 36
Traffic pattern: leftright
Obstructions: none25 ft. trees, 20 ft. from runway

Airport Ownership and Management from official FAA records

Ownership: Privately-owned
Owner: SUNSET STRIP HOMEOWNERS
4624 SE PAULEN ROAD
BERRYTON, KS 66409
Phone 785-231-8502
Manager: GREG HUNSICKER
4624 SE PAULEN RD
BERRYTON, KS 66409
Phone 785-231-8502

Airport Operational Statistics

Aircraft based on the field: 9
Single engine airplanes: 9
    

Additional Remarks

FOR CD CTC KANSAS CITY ARTCC AT 913-254-8508.

Instrument Procedures

There are no published instrument procedures at 90KS.

Some nearby airports with instrument procedures:

KFOE - Topeka Regional Airport (4 nm SW)
KTOP - Philip Billard Municipal Airport (5 nm N)
KLWC - Lawrence Municipal Airport (18 nm E)
KOWI - Ottawa Municipal Airport (31 nm SE)
KIXD - New Century AirCenter Airport (34 nm E)
 
Loc | Ops | Rwys | IFR | FBO | Links
Com | Nav | Svcs | Stats | Notes

Kansas City Aviation Department
 
Area around 90KS (Sunset Strip Airpark)
 
Road maps at: MapQuest Bing Google
 
Aerial photo
WARNING: Photo may not be current or correct
Aerial photo of 90KS (Sunset Strip Airpark)
Photo by Greg Hunsicker
Photo taken 08-May-2010
looking south.

Do you have a better or more recent aerial photo of Sunset Strip Airpark that you would like to share? If so, please send us your photo.

 
Sectional chart

 
Airport distance calculator
Flying to Sunset Strip Airpark? Find the distance to fly.

From to 90KS

Sunrise and sunset
Times for 15-Sep-2019
 Local
(UTC-5)
 Zulu
(UTC)
Morning civil twilight06:3811:38
Sunrise07:0512:05
Sunset19:3000:30
Evening civil twilight19:5700:57

Current date and time
Zulu (UTC)  15-Sep-2019 13:26:25
Local (UTC-5)  15-Sep-2019 08:26:25
 
METAR
KFOE 
4nm SW 
151253Z 20009KT 10SM SCT110 23/19 A3004 RMK AO2 SLP161 T02330194 $
KTOP 
5nm N 
151253Z VRB06KT 10SM FEW110 24/18 A3003 RMK AO2 SLP160 T02440183 $
KLWC 
18nm E 
151252Z AUTO 00000KT 10SM SCT110 24/19 A3004 RMK AO2 SLP164 T02440194 $
TAF
KFOE 
4nm SW 
151120Z 1512/1612 21012KT P6SM SCT100 WS012/23040KT FM151400 23013G23KT P6SM FEW100 FM152300 20008KT P6SM SKC
KTOP 
5nm N 
151120Z 1512/1612 21008KT P6SM SCT100 WS013/23040KT FM151400 23010G17KT P6SM FEW100 FM152300 19006KT P6SM SKC
NOTAMs
Click for the latest NOTAMs
NOTAMs are issued by the DoD/FAA and will open in a separate window not controlled by AirNav.

 

 
 

Would you like to see your business listed on this page?

 If your business provides an interesting product or service to pilots, flight crews, aircraft, or users of the Sunset Strip Airpark, you should consider listing it here.  To start the listing process, click on the button below
 
Add a business
 

Other Pages about Sunset Strip Airpark

Update a link
 
Copyright © AirNav, LLC. All rights reserved. Privacy Policy  Contact